McNeil, AR

6:03 AM CST on February 06, 2016 (GMT -0600)
South Arkansas Regional At Goodwin | | Change Station
CLOSE
Current Station
Airport
Location: El Dorado,
Elevation: 276 ft
Nearby Weather Stations

Elev 276 ft 33.22 °N, 92.81 °W | Updated 10 minutes ago

Partly Cloudy
Partly Cloudy
35 °F
Feels Like 35 °F
N
0
Wind Variable Wind from North

Today
High -- | Low -- °F
--% Chance of Precip.
Yesterday
High -- | Low -- °F
Precip. -- in
Pressure 30.33 in
Visibility 10.0 miles
Clouds Clear
Dew Point 26 °F
Humidity 70%
Rainfall 0.00 in
Snow Depth Not available.
7:05 AM 5:48 PM
Waning Crescent, 6% visible
METAR KELD 061153Z AUTO 00000KT 10SM CLR 02/M03 A3033 RMK AO2 SLP271 T00171033 10028 21006 53000
Pressure 30.33 in
Visibility 10.0 miles
Clouds Clear
Dew Point 26 °F
Humidity 70%
Rainfall 0.00 in
Snow Depth Not available.
7:05 AM 5:48 PM
Waning Crescent, 6% visible
METAR KELD 061153Z AUTO 00000KT 10SM CLR 02/M03 A3033 RMK AO2 SLP271 T00171033 10028 21006 53000

10-Day Weather Forecast

Almanac

Astronomy

Feb. 06, 2016 Rise Set
Actual Time
Civil Twilight
Nautical Twilight
Astronomical Twilight
Moon
Length of Visible Light
Length of Day
Tomorrow will be .
, % of the Moon is Illuminated

Today's Extremes

State Highs State Lows

Community

WunderPhotos

Upload Photos

1,890,944 photos uploaded!

WunderBlog® & News

Nearby

Air Quality

  Air Quality AQ Index Pollutant
Not available.

Snow Depth

Station Depth Elevation

Earthquake Activity

City Distance Mag. Time & Date
Minimum magnitude displayed is 2.5.

Coastal Water Temperatures

Place Temperature

Stations

Nearby Weather Stations

Station Location Temp. Windchill Dew Point Humidity Wind Precip. Elev Updated Type
                   

Watches & Warnings

There are currently no watches in effect.